Time;durP1;ratioP1;P1;durP2;ratioP2;P2;SDS_P1;SDS_P2;PMS_P1;PMS_P2;Temp;Humidity;BMP_temperature;BMP_pressure;BME280_temperature;BME280_humidity;BME280_pressure;Samples;Min_cycle;Max_cycle;Signal;HPM_P1;HPM_P2
2024/02/24 00:00:16;;;;;;;1.00;0.80;;;5.70;99.90;;;;;;5053500;28;20178;-70
2024/02/24 00:02:41;;;;;;;1.00;0.70;;;5.80;99.90;;;;;;5053655;28;20401;-70
2024/02/24 00:05:07;;;;;;;1.77;1.00;;;5.80;99.90;;;;;;5054090;28;20170;-70
2024/02/24 00:07:33;;;;;;;1.30;0.87;;;5.80;99.90;;;;;;5053825;28;20229;-71
2024/02/24 00:09:58;;;;;;;0.90;0.70;;;5.80;99.90;;;;;;5053857;28;20496;-70
2024/02/24 00:12:24;;;;;;;1.00;0.87;;;5.80;99.90;;;;;;5053557;28;20601;-70
2024/02/24 00:14:49;;;;;;;0.80;0.60;;;5.90;99.90;;;;;;5053769;28;20201;-70
2024/02/24 00:17:15;;;;;;;1.10;1.00;;;5.90;99.90;;;;;;5053628;28;20221;-71
2024/02/24 00:19:40;;;;;;;0.80;0.70;;;5.90;99.90;;;;;;5053825;28;20167;-71
2024/02/24 00:22:06;;;;;;;1.67;1.20;;;5.90;99.90;;;;;;5053447;28;20174;-70
2024/02/24 00:24:31;;;;;;;1.00;0.80;;;6.00;99.90;;;;;;5053670;28;20172;-69
2024/02/24 00:26:57;;;;;;;1.73;0.93;;;6.00;99.90;;;;;;5053463;28;20320;-70
2024/02/24 00:29:22;;;;;;;1.30;0.90;;;5.90;99.90;;;;;;5053380;28;20207;-70
2024/02/24 00:31:48;;;;;;;1.10;0.70;;;5.90;99.90;;;;;;5053210;28;20171;-70
2024/02/24 00:34:13;;;;;;;2.73;1.17;;;5.80;99.90;;;;;;5053360;28;20189;-70
2024/02/24 00:36:39;;;;;;;3.03;0.90;;;5.80;99.90;;;;;;5053251;28;20183;-70
2024/02/24 00:39:04;;;;;;;1.00;0.80;;;5.70;99.90;;;;;;5053370;28;20167;-69
2024/02/24 00:41:30;;;;;;;1.20;0.97;;;5.70;99.90;;;;;;5052876;28;20177;-70
2024/02/24 00:43:55;;;;;;;1.37;0.83;;;5.70;99.90;;;;;;5053096;28;20163;-70
2024/02/24 00:46:21;;;;;;;1.10;0.67;;;5.60;99.90;;;;;;5051549;28;20217;-70
2024/02/24 00:48:46;;;;;;;4.27;0.90;;;5.70;99.90;;;;;;5051925;28;20623;-70
2024/02/24 00:51:12;;;;;;;1.10;0.87;;;5.60;99.90;;;;;;5052830;28;20538;-70
2024/02/24 00:53:38;;;;;;;0.97;0.87;;;5.60;99.90;;;;;;5052971;28;20183;-70
2024/02/24 00:56:04;;;;;;;7.63;1.03;;;5.70;99.90;;;;;;5052901;28;20216;-70
2024/02/24 00:58:29;;;;;;;0.90;0.80;;;5.60;99.90;;;;;;5052857;28;20398;-70
2024/02/24 01:00:55;;;;;;;1.20;0.80;;;5.50;99.90;;;;;;5052684;28;20964;-70
2024/02/24 01:03:20;;;;;;;1.13;1.03;;;5.50;99.90;;;;;;5052862;28;20163;-69
2024/02/24 01:05:46;;;;;;;3.93;1.43;;;5.50;99.90;;;;;;5052691;28;20533;-70
2024/02/24 01:08:11;;;;;;;1.13;0.80;;;5.50;99.90;;;;;;5051155;28;20195;-70
2024/02/24 01:10:37;;;;;;;1.30;1.10;;;5.60;99.90;;;;;;5052545;28;20186;-69
2024/02/24 01:13:02;;;;;;;0.90;0.70;;;5.50;99.90;;;;;;5052312;28;20162;-70
2024/02/24 01:15:28;;;;;;;0.90;0.80;;;5.50;99.90;;;;;;5052604;28;20285;-70
2024/02/24 01:17:57;;;;;;;1.30;1.00;;;5.60;99.90;;;;;;5052805;28;20187;-70
2024/02/24 01:20:24;;;;;;;1.80;0.80;;;5.70;99.90;;;;;;5052602;28;20622;-70
2024/02/24 01:22:53;;;;;;;1.40;0.80;;;5.70;99.90;;;;;;5052375;28;20406;-70
2024/02/24 01:25:19;;;;;;;1.77;1.20;;;5.70;99.90;;;;;;5052554;28;20504;-70
2024/02/24 01:27:45;;;;;;;1.20;0.97;;;5.60;99.90;;;;;;5052509;28;20421;-71
2024/02/24 01:30:11;;;;;;;3.70;1.00;;;5.60;99.90;;;;;;5052715;28;20475;-70
2024/02/24 01:32:36;;;;;;;1.53;1.03;;;5.70;99.90;;;;;;5052376;28;20641;-71
2024/02/24 01:35:02;;;;;;;1.53;0.87;;;5.60;99.90;;;;;;5052252;28;20197;-70
2024/02/24 01:37:28;;;;;;;1.10;0.90;;;5.60;99.90;;;;;;5052177;28;20187;-70
2024/02/24 01:39:54;;;;;;;2.37;1.20;;;5.60;99.90;;;;;;5052222;28;20446;-70
2024/02/24 01:42:19;;;;;;;1.07;0.90;;;5.60;99.90;;;;;;5051874;28;20190;-70
2024/02/24 01:44:45;;;;;;;1.90;1.03;;;5.50;99.90;;;;;;5052218;28;20510;-70
2024/02/24 01:47:11;;;;;;;1.20;1.00;;;5.60;99.90;;;;;;5052177;28;20441;-70
2024/02/24 01:49:38;;;;;;;3.83;0.80;;;5.60;99.90;;;;;;5052111;28;20250;-70
2024/02/24 01:52:05;;;;;;;2.60;0.80;;;5.50;99.90;;;;;;5051740;28;20182;-70
2024/02/24 01:54:31;;;;;;;0.80;0.63;;;5.50;99.90;;;;;;5051785;28;20456;-70
2024/02/24 01:56:57;;;;;;;0.90;0.80;;;5.60;99.90;;;;;;5050840;28;20425;-70
2024/02/24 01:59:24;;;;;;;0.80;0.73;;;5.60;99.90;;;;;;5051941;28;20402;-70
2024/02/24 02:01:50;;;;;;;1.00;0.90;;;5.50;99.90;;;;;;5051659;28;20412;-70
2024/02/24 02:04:16;;;;;;;0.80;0.60;;;5.60;99.90;;;;;;5051905;28;20416;-70
2024/02/24 02:06:41;;;;;;;1.33;1.00;;;5.70;99.90;;;;;;5052091;28;20901;-70
2024/02/24 02:09:07;;;;;;;1.07;0.83;;;5.70;99.90;;;;;;5050496;28;20183;-70
2024/02/24 02:11:32;;;;;;;1.20;1.03;;;5.70;99.90;;;;;;5050211;28;20181;-70
2024/02/24 02:13:58;;;;;;;0.80;0.70;;;5.70;99.90;;;;;;5051901;28;20170;-70
2024/02/24 02:16:23;;;;;;;1.20;0.70;;;5.70;99.90;;;;;;5051601;28;20332;-70
2024/02/24 02:18:49;;;;;;;0.90;0.70;;;5.80;99.90;;;;;;5051634;28;20257;-70
2024/02/24 02:21:15;;;;;;;0.80;0.60;;;5.90;99.90;;;;;;5049985;28;20648;-70
2024/02/24 02:23:41;;;;;;;1.10;0.80;;;5.90;99.90;;;;;;5050173;28;20177;-70
2024/02/24 02:26:06;;;;;;;0.80;0.60;;;5.90;99.90;;;;;;5051553;28;20500;-69
2024/02/24 02:28:32;;;;;;;1.00;0.60;;;6.00;99.90;;;;;;5051769;28;20308;-70
2024/02/24 02:31:00;;;;;;;1.03;0.70;;;6.00;99.90;;;;;;5051555;28;20642;-71
2024/02/24 02:33:25;;;;;;;0.70;0.60;;;6.00;99.90;;;;;;5051667;28;20174;-70
2024/02/24 02:35:51;;;;;;;0.80;0.67;;;6.00;99.90;;;;;;5050336;28;20832;-70
2024/02/24 02:38:16;;;;;;;1.27;0.73;;;6.00;99.90;;;;;;5051470;28;20190;-70
2024/02/24 02:40:42;;;;;;;0.80;0.60;;;6.10;99.90;;;;;;5049943;28;20182;-70
2024/02/24 02:43:07;;;;;;;2.20;0.60;;;6.10;99.90;;;;;;5051552;28;20167;-71
2024/02/24 02:45:33;;;;;;;0.80;0.60;;;6.00;99.90;;;;;;5050231;28;20226;-70
2024/02/24 02:47:58;;;;;;;0.90;0.60;;;6.10;99.90;;;;;;5051352;28;20198;-69
2024/02/24 02:50:24;;;;;;;0.93;0.67;;;6.10;99.90;;;;;;5051444;28;20654;-70
2024/02/24 02:52:49;;;;;;;0.90;0.50;;;6.10;99.90;;;;;;5051031;28;20183;-70
2024/02/24 02:55:17;;;;;;;1.87;0.90;;;6.00;99.90;;;;;;5051317;28;20194;-70
2024/02/24 02:57:43;;;;;;;0.80;0.50;;;6.00;99.90;;;;;;5051425;28;20193;-70
2024/02/24 03:00:09;;;;;;;1.63;0.70;;;6.00;99.90;;;;;;5050112;28;20405;-70
2024/02/24 03:02:35;;;;;;;0.87;0.77;;;6.00;99.90;;;;;;5051170;28;20545;-70
2024/02/24 03:05:00;;;;;;;2.30;0.70;;;5.90;99.90;;;;;;5051350;28;20434;-70
2024/02/24 03:07:26;;;;;;;0.70;0.50;;;5.80;99.90;;;;;;5051289;28;20569;-71
2024/02/24 03:09:51;;;;;;;1.00;0.73;;;5.80;99.90;;;;;;5054630;28;20174;-71
2024/02/24 03:12:17;;;;;;;0.80;0.60;;;5.80;99.90;;;;;;5054883;28;20221;-70
2024/02/24 03:14:43;;;;;;;0.90;0.63;;;5.80;99.90;;;;;;5054659;28;20746;-70
2024/02/24 03:17:08;;;;;;;1.00;0.67;;;5.80;99.90;;;;;;5054965;28;20564;-71
2024/02/24 03:19:34;;;;;;;0.90;0.60;;;5.70;99.90;;;;;;5053814;28;20202;-69
2024/02/24 03:21:59;;;;;;;1.10;0.70;;;5.60;99.90;;;;;;5054635;28;20622;-69
2024/02/24 03:24:25;;;;;;;2.10;0.90;;;5.60;99.90;;;;;;5053480;28;20281;-70
2024/02/24 03:26:50;;;;;;;0.90;0.83;;;5.50;99.90;;;;;;5054771;28;20190;-70
2024/02/24 03:29:16;;;;;;;1.83;0.80;;;5.50;99.90;;;;;;5055107;28;20268;-70
2024/02/24 03:31:41;;;;;;;0.80;0.63;;;5.50;99.90;;;;;;5054343;28;20155;-69
2024/02/24 03:34:07;;;;;;;0.90;0.70;;;5.40;99.90;;;;;;5053161;28;20177;-71
2024/02/24 03:36:33;;;;;;;1.10;0.70;;;5.40;99.90;;;;;;5054393;28;20209;-70
2024/02/24 03:38:58;;;;;;;1.97;0.97;;;5.30;99.90;;;;;;5054414;28;20515;-70
2024/02/24 03:41:25;;;;;;;1.20;0.70;;;5.40;99.90;;;;;;5054480;28;20734;-71
2024/02/24 03:43:51;;;;;;;1.13;1.00;;;5.40;99.90;;;;;;5054318;28;20170;-70
2024/02/24 03:46:17;;;;;;;0.90;0.80;;;5.40;99.90;;;;;;5054574;28;20409;-70
2024/02/24 03:48:45;;;;;;;1.53;1.03;;;5.30;99.90;;;;;;5053122;28;20549;-70
2024/02/24 03:51:11;;;;;;;1.47;1.03;;;5.20;99.90;;;;;;5053998;28;20173;-70
2024/02/24 03:53:36;;;;;;;1.07;0.97;;;5.20;99.90;;;;;;5054060;28;20433;-70
2024/02/24 03:56:02;;;;;;;2.20;1.17;;;5.10;99.90;;;;;;5054240;28;20195;-71
2024/02/24 03:58:28;;;;;;;1.70;1.30;;;5.10;99.90;;;;;;5054083;28;20638;-70
2024/02/24 04:00:53;;;;;;;3.53;0.80;;;5.10;99.90;;;;;;5052602;28;20167;-70
2024/02/24 04:03:19;;;;;;;2.67;1.23;;;5.10;99.90;;;;;;5052723;28;20205;-70
2024/02/24 04:05:46;;;;;;;1.10;1.00;;;5.10;99.90;;;;;;5053977;28;20658;-70
2024/02/24 04:08:12;;;;;;;1.00;0.80;;;5.00;99.90;;;;;;5053631;28;20729;-71
2024/02/24 04:10:37;;;;;;;3.17;1.30;;;5.10;99.90;;;;;;5052594;28;20444;-71
2024/02/24 04:13:03;;;;;;;1.00;0.93;;;5.10;99.90;;;;;;5051928;28;20656;-70
2024/02/24 04:15:28;;;;;;;1.17;0.90;;;5.20;99.90;;;;;;5053624;28;20191;-70
2024/02/24 04:17:54;;;;;;;1.30;1.07;;;5.30;99.90;;;;;;5053620;28;20183;-70
2024/02/24 04:20:20;;;;;;;4.20;1.13;;;5.30;99.90;;;;;;5053117;28;20541;-70
2024/02/24 04:22:45;;;;;;;2.27;1.50;;;5.30;99.90;;;;;;5053281;28;20549;-71
2024/02/24 04:25:11;;;;;;;2.37;1.53;;;5.40;99.90;;;;;;5053656;28;20178;-71
2024/02/24 04:27:36;;;;;;;2.30;1.57;;;5.30;99.90;;;;;;5053541;28;20666;-71
2024/02/24 04:30:03;;;;;;;2.63;1.60;;;5.40;99.90;;;;;;5053566;28;20225;-71
2024/02/24 04:32:29;;;;;;;2.07;1.23;;;5.50;99.90;;;;;;5053220;28;20217;-72
2024/02/24 04:34:55;;;;;;;1.83;1.37;;;5.30;99.90;;;;;;5053406;28;20456;-71
2024/02/24 04:37:22;;;;;;;2.90;1.40;;;5.40;99.90;;;;;;5053275;28;20436;-70
2024/02/24 04:39:48;;;;;;;1.70;1.30;;;5.30;99.90;;;;;;5053570;28;20896;-71
2024/02/24 04:42:14;;;;;;;2.07;1.87;;;5.40;99.90;;;;;;5053160;28;20401;-71
2024/02/24 04:44:39;;;;;;;2.70;1.37;;;5.30;99.90;;;;;;5053210;28;20167;-71
2024/02/24 04:47:05;;;;;;;3.10;1.30;;;5.30;99.90;;;;;;5052944;28;20190;-71
2024/02/24 04:49:30;;;;;;;1.83;1.10;;;5.30;99.90;;;;;;5053105;28;20179;-71
2024/02/24 04:51:56;;;;;;;1.17;0.90;;;5.20;99.90;;;;;;5052720;28;20183;-71
2024/02/24 04:54:22;;;;;;;1.57;1.20;;;5.20;99.90;;;;;;5052983;28;20182;-70
2024/02/24 04:56:48;;;;;;;2.03;1.07;;;5.10;99.90;;;;;;5053165;28;20225;-72
2024/02/24 04:59:14;;;;;;;1.83;1.20;;;5.10;99.90;;;;;;5051699;28;20437;-70
2024/02/24 05:01:39;;;;;;;1.00;0.80;;;5.10;99.90;;;;;;5052372;28;20163;-70
2024/02/24 05:04:05;;;;;;;1.00;0.90;;;5.00;99.90;;;;;;5052818;28;20409;-72
2024/02/24 05:06:30;;;;;;;2.10;0.90;;;5.00;99.90;;;;;;5052571;28;20276;-71
2024/02/24 05:08:56;;;;;;;1.73;0.93;;;4.90;99.90;;;;;;5052796;28;20179;-71
2024/02/24 05:11:21;;;;;;;1.80;0.87;;;5.00;99.90;;;;;;5052240;28;20724;-71
2024/02/24 05:13:47;;;;;;;2.27;1.00;;;5.00;99.90;;;;;;5052534;28;20553;-71
2024/02/24 05:16:14;;;;;;;1.00;0.87;;;5.00;99.90;;;;;;5052296;28;20198;-71
2024/02/24 05:18:40;;;;;;;6.63;1.00;;;5.00;99.90;;;;;;5052642;28;20394;-71
2024/02/24 05:21:06;;;;;;;6.17;1.53;;;5.10;99.90;;;;;;5051260;28;20428;-71
2024/02/24 05:23:31;;;;;;;1.17;1.07;;;5.10;99.90;;;;;;5052491;28;20398;-71
2024/02/24 05:25:57;;;;;;;1.40;0.87;;;5.10;99.90;;;;;;5052585;28;20175;-71
2024/02/24 05:28:22;;;;;;;0.80;0.67;;;5.20;99.90;;;;;;5051126;28;20198;-70
2024/02/24 05:30:48;;;;;;;1.97;0.90;;;5.20;99.90;;;;;;5052082;28;20182;-70
2024/02/24 05:33:14;;;;;;;1.30;0.80;;;5.20;99.90;;;;;;5051483;28;20178;-70
2024/02/24 05:35:40;;;;;;;1.93;1.23;;;5.30;99.90;;;;;;5052651;28;20198;-71
2024/02/24 05:38:05;;;;;;;1.40;0.90;;;5.30;99.90;;;;;;5052277;28;20486;-71
2024/02/24 05:40:31;;;;;;;1.10;0.90;;;5.40;99.90;;;;;;5052346;28;20198;-71
2024/02/24 05:42:56;;;;;;;1.07;0.90;;;5.40;99.90;;;;;;5051898;28;20652;-71
2024/02/24 05:45:22;;;;;;;1.93;1.13;;;5.40;99.90;;;;;;5052197;28;20589;-70
2024/02/24 05:47:47;;;;;;;1.00;0.90;;;5.30;99.90;;;;;;5052194;28;20253;-72
2024/02/24 05:50:13;;;;;;;1.23;0.90;;;5.30;99.90;;;;;;5051589;28;20224;-71
2024/02/24 05:52:38;;;;;;;6.93;4.43;;;5.30;99.90;;;;;;5051707;28;20190;-70
2024/02/24 05:55:06;;;;;;;2.07;1.43;;;5.30;99.90;;;;;;5050659;28;20285;-71
2024/02/24 05:57:32;;;;;;;1.10;0.80;;;5.30;99.90;;;;;;5051940;28;20195;-71
2024/02/24 05:59:57;;;;;;;2.20;1.07;;;5.40;99.90;;;;;;5051939;28;20443;-72
2024/02/24 06:02:23;;;;;;;1.30;1.20;;;5.40;99.90;;;;;;5051586;28;20688;-72
2024/02/24 06:04:48;;;;;;;1.50;1.10;;;5.50;99.90;;;;;;5051703;28;20175;-71
2024/02/24 06:07:14;;;;;;;2.27;1.10;;;5.50;99.90;;;;;;5051686;28;20187;-71
2024/02/24 06:09:39;;;;;;;1.53;0.93;;;5.50;99.90;;;;;;5051887;28;20266;-71
2024/02/24 06:12:06;;;;;;;1.23;1.07;;;5.50;99.90;;;;;;5051547;28;20170;-71
2024/02/24 06:14:31;;;;;;;1.20;1.10;;;5.60;99.90;;;;;;5051598;28;20167;-70
2024/02/24 06:16:57;;;;;;;4.50;1.47;;;5.60;99.90;;;;;;5051527;28;20424;-70
2024/02/24 06:19:22;;;;;;;1.67;1.57;;;5.60;99.90;;;;;;5051649;28;20167;-71
2024/02/24 06:21:48;;;;;;;3.20;1.67;;;5.60;99.90;;;;;;5051400;28;20167;-71
2024/02/24 06:24:13;;;;;;;3.10;1.20;;;5.70;99.90;;;;;;5051642;28;20167;-71
2024/02/24 06:26:39;;;;;;;1.27;1.17;;;5.60;99.90;;;;;;5051518;28;20658;-70
2024/02/24 06:29:04;;;;;;;1.23;1.13;;;5.60;99.90;;;;;;5051601;28;20705;-71
2024/02/24 06:31:30;;;;;;;1.50;1.23;;;5.60;99.90;;;;;;5051880;28;20167;-71
2024/02/24 06:33:55;;;;;;;1.50;1.20;;;5.60;99.90;;;;;;5049881;28;20171;-71
2024/02/24 06:36:21;;;;;;;1.20;1.10;;;5.60;99.90;;;;;;5051207;28;20206;-71
2024/02/24 06:38:46;;;;;;;1.00;0.90;;;5.60;99.90;;;;;;5051329;28;20201;-71
2024/02/24 06:41:12;;;;;;;0.90;0.80;;;5.60;99.90;;;;;;5051271;28;20164;-71
2024/02/24 06:43:37;;;;;;;1.37;1.20;;;5.60;99.90;;;;;;5052875;28;20585;-72
2024/02/24 06:46:03;;;;;;;1.43;1.20;;;5.60;99.90;;;;;;5055421;28;20217;-71
2024/02/24 06:48:29;;;;;;;3.80;1.43;;;5.50;99.90;;;;;;5054169;28;20541;-71
2024/02/24 06:50:54;;;;;;;2.50;1.47;;;5.50;99.90;;;;;;5055312;28;20175;-71
2024/02/24 06:53:20;;;;;;;1.10;1.00;;;5.60;99.90;;;;;;5055297;28;20187;-71
2024/02/24 06:55:46;;;;;;;1.17;0.80;;;5.60;99.90;;;;;;5055216;28;20220;-70
2024/02/24 06:58:11;;;;;;;1.67;1.20;;;5.50;99.90;;;;;;5055126;28;20421;-72
2024/02/24 07:00:37;;;;;;;2.07;1.10;;;5.60;99.90;;;;;;5053959;28;20268;-71
2024/02/24 07:03:03;;;;;;;1.27;0.93;;;5.70;99.90;;;;;;5054861;28;20170;-71
2024/02/24 07:05:28;;;;;;;1.30;1.20;;;5.60;99.90;;;;;;5055347;28;20201;-71
2024/02/24 07:07:55;;;;;;;1.40;1.30;;;5.60;99.90;;;;;;5055087;28;20218;-71
2024/02/24 07:10:20;;;;;;;1.30;1.20;;;5.70;99.90;;;;;;5055062;28;20170;-71
2024/02/24 07:12:46;;;;;;;1.53;1.00;;;5.70;99.90;;;;;;5054783;28;20405;-70
2024/02/24 07:15:12;;;;;;;4.23;1.30;;;5.70;99.90;;;;;;5054989;28;20212;-71
2024/02/24 07:17:37;;;;;;;1.60;1.40;;;5.70;99.90;;;;;;5054756;28;20237;-71
2024/02/24 07:20:03;;;;;;;1.07;0.97;;;5.70;99.90;;;;;;5054259;28;20165;-71
2024/02/24 07:22:28;;;;;;;5.00;1.00;;;5.70;99.90;;;;;;5054064;28;20198;-71
2024/02/24 07:24:54;;;;;;;1.60;1.00;;;5.80;99.90;;;;;;5053305;28;20257;-71
2024/02/24 07:27:19;;;;;;;1.53;1.07;;;5.80;99.90;;;;;;5054441;28;20590;-72
2024/02/24 07:29:45;;;;;;;1.70;1.60;;;5.80;99.90;;;;;;5054589;28;20167;-71
2024/02/24 07:32:10;;;;;;;1.20;1.10;;;5.90;99.90;;;;;;5054189;28;20523;-71
2024/02/24 07:34:37;;;;;;;3.83;1.40;;;6.00;99.90;;;;;;5054384;28;20171;-71
2024/02/24 07:37:02;;;;;;;1.10;0.90;;;6.10;99.90;;;;;;5054507;28;20584;-71
2024/02/24 07:39:28;;;;;;;1.00;0.87;;;6.20;99.90;;;;;;5054251;28;20489;-70
2024/02/24 07:41:54;;;;;;;1.27;1.10;;;6.20;99.90;;;;;;5054000;28;20236;-70
2024/02/24 07:44:19;;;;;;;1.43;1.03;;;6.30;99.90;;;;;;5053976;28;20408;-71
2024/02/24 07:46:45;;;;;;;1.10;0.83;;;6.20;99.90;;;;;;5052720;28;20705;-71
2024/02/24 07:49:10;;;;;;;2.90;1.70;;;6.20;99.90;;;;;;5054140;28;20165;-70
2024/02/24 07:51:36;;;;;;;1.77;1.33;;;6.30;99.90;;;;;;5053985;28;20534;-71
2024/02/24 07:54:02;;;;;;;1.43;1.13;;;6.40;99.90;;;;;;5053984;28;20187;-71
2024/02/24 07:56:27;;;;;;;1.50;1.37;;;6.30;99.90;;;;;;5051689;28;20194;-71
2024/02/24 07:58:53;;;;;;;1.93;1.10;;;6.30;99.90;;;;;;5053972;28;20163;-71
2024/02/24 08:01:19;;;;;;;1.60;1.10;;;6.40;99.90;;;;;;5053705;28;20209;-71
2024/02/24 08:03:45;;;;;;;0.90;0.80;;;6.40;99.90;;;;;;5054023;28;20653;-71
2024/02/24 08:06:11;;;;;;;1.00;0.80;;;6.40;99.90;;;;;;5053532;28;20492;-70
2024/02/24 08:08:37;;;;;;;1.20;1.10;;;6.40;99.90;;;;;;5053916;28;20167;-70
2024/02/24 08:11:04;;;;;;;4.80;1.07;;;6.50;99.90;;;;;;5052475;28;20182;-72
2024/02/24 08:13:30;;;;;;;0.90;0.80;;;6.60;99.90;;;;;;5053859;28;20182;-71
2024/02/24 08:15:56;;;;;;;0.90;0.80;;;6.70;99.90;;;;;;5053547;28;20483;-71
2024/02/24 08:18:22;;;;;;;1.37;0.80;;;6.70;99.90;;;;;;5053612;28;20418;-71
2024/02/24 08:20:48;;;;;;;1.67;0.87;;;6.70;99.90;;;;;;5053547;28;20242;-71
2024/02/24 08:23:14;;;;;;;0.87;0.63;;;6.70;99.90;;;;;;5053799;28;20398;-71
2024/02/24 08:25:39;;;;;;;1.50;0.60;;;6.60;99.90;;;;;;5053659;28;20465;-71
2024/02/24 08:28:05;;;;;;;0.80;0.67;;;6.60;99.90;;;;;;5053245;28;20237;-71
2024/02/24 08:30:30;;;;;;;0.70;0.60;;;6.50;99.90;;;;;;5053445;28;20641;-70
2024/02/24 08:32:56;;;;;;;0.70;0.57;;;6.50;99.90;;;;;;5053033;28;20189;-70
2024/02/24 08:35:21;;;;;;;1.13;0.90;;;6.60;99.90;;;;;;5053217;28;20199;-70
2024/02/24 08:37:47;;;;;;;1.10;0.80;;;6.50;99.90;;;;;;5052817;28;20205;-65
2024/02/24 08:40:13;;;;;;;1.20;0.80;;;6.40;99.90;;;;;;5052949;28;20653;-66
2024/02/24 08:42:38;;;;;;;0.80;0.60;;;6.50;99.90;;;;;;5053069;28;20163;-66
2024/02/24 08:45:05;;;;;;;1.87;0.83;;;6.50;99.90;;;;;;5053262;28;20194;-66
2024/02/24 08:47:31;;;;;;;1.30;1.07;;;6.60;99.90;;;;;;5053248;28;20191;-65
2024/02/24 08:49:56;;;;;;;0.87;0.60;;;6.60;99.90;;;;;;5053242;28;20837;-65
2024/02/24 08:52:22;;;;;;;1.10;0.90;;;6.70;99.90;;;;;;5052824;28;20508;-65
2024/02/24 08:54:48;;;;;;;2.20;1.00;;;6.80;99.90;;;;;;5053019;28;20199;-66
2024/02/24 08:57:13;;;;;;;1.10;0.77;;;6.90;99.90;;;;;;5052923;28;20967;-64
2024/02/24 08:59:39;;;;;;;0.80;0.60;;;6.80;99.90;;;;;;5053019;28;20243;-66
2024/02/24 09:02:05;;;;;;;0.80;0.50;;;6.90;99.90;;;;;;5052743;28;20179;-66
2024/02/24 09:04:30;;;;;;;1.10;0.70;;;7.10;99.90;;;;;;5052928;28;20167;-66
2024/02/24 09:06:56;;;;;;;0.70;0.53;;;7.60;99.90;;;;;;5052723;28;20194;-66
2024/02/24 09:09:21;;;;;;;0.90;0.60;;;8.50;99.90;;;;;;5051529;28;20175;-66
2024/02/24 09:11:48;;;;;;;2.30;0.67;;;9.60;99.90;;;;;;5052590;28;20233;-67
2024/02/24 09:14:13;;;;;;;1.73;0.73;;;11.40;99.90;;;;;;5052649;28;20198;-66
2024/02/24 09:16:39;;;;;;;0.90;0.60;;;13.90;99.90;;;;;;5052540;28;21212;-67
2024/02/24 09:19:04;;;;;;;1.07;0.60;;;16.40;99.90;;;;;;5052730;28;20657;-67
2024/02/24 09:21:30;;;;;;;1.23;0.70;;;19.20;87.60;;;;;;5052482;28;20205;-67
2024/02/24 09:23:56;;;;;;;1.00;0.70;;;21.40;59.40;;;;;;5052506;28;20167;-67
2024/02/24 09:26:22;;;;;;;0.90;0.70;;;22.00;48.80;;;;;;5052482;28;20464;-67
2024/02/24 09:28:47;;;;;;;1.93;0.90;;;21.80;45.40;;;;;;5052455;28;20252;-67
2024/02/24 09:31:13;;;;;;;1.60;1.50;;;22.50;43.60;;;;;;5052202;28;20167;-67
2024/02/24 09:33:39;;;;;;;1.57;1.10;;;22.80;42.90;;;;;;5052304;28;20188;-67
2024/02/24 09:36:04;;;;;;;0.90;0.80;;;21.00;39.70;;;;;;5052215;28;20203;-67
2024/02/24 09:38:30;;;;;;;1.30;0.90;;;19.60;41.70;;;;;;5052318;28;20198;-67
2024/02/24 09:40:55;;;;;;;0.80;0.70;;;18.10;42.10;;;;;;5051765;28;20170;-67
2024/02/24 09:43:22;;;;;;;0.90;0.80;;;16.70;45.30;;;;;;5052148;28;20167;-66
2024/02/24 09:45:48;;;;;;;0.90;0.60;;;16.50;49.20;;;;;;5052225;28;20178;-66
2024/02/24 09:48:15;;;;;;;1.13;0.77;;;16.50;50.00;;;;;;5052089;28;20421;-66
2024/02/24 09:50:41;;;;;;;0.80;0.60;;;15.90;48.70;;;;;;5052029;28;20778;-66
2024/02/24 09:53:07;;;;;;;0.90;0.80;;;15.20;49.60;;;;;;5051547;28;20440;-66
2024/02/24 09:55:33;;;;;;;0.80;0.60;;;14.60;51.00;;;;;;5050983;28;20198;-66
2024/02/24 09:58:00;;;;;;;0.80;0.60;;;15.00;52.80;;;;;;5051941;28;20482;-66
2024/02/24 10:00:26;;;;;;;0.90;0.70;;;15.30;53.60;;;;;;5051859;28;20175;-66
2024/02/24 10:02:52;;;;;;;1.53;0.90;;;15.10;53.20;;;;;;5051476;28;20405;-66
2024/02/24 10:05:18;;;;;;;2.90;1.00;;;14.40;52.30;;;;;;5051863;28;20490;-66
2024/02/24 10:07:46;;;;;;;0.93;0.80;;;13.90;51.40;;;;;;5051749;28;20195;-66
2024/02/24 10:10:16;;;;;;;1.70;0.80;;;14.10;53.40;;;;;;5051873;28;20175;-66
2024/02/24 10:12:58;;;;;;;1.10;0.70;;;14.10;52.40;;;;;;5050184;28;20904;-66
2024/02/24 10:15:25;;;;;;;0.80;0.60;;;13.70;52.30;;;;;;5051436;28;20895;-66
2024/02/24 10:17:53;;;;;;;2.43;0.93;;;13.10;51.00;;;;;;5051159;28;20464;-66
2024/02/24 10:20:19;;;;;;;0.90;0.70;;;13.10;52.20;;;;;;5051673;28;20450;-65
2024/02/24 10:22:45;;;;;;;1.03;0.70;;;12.90;50.70;;;;;;5051421;28;20430;-66
2024/02/24 10:25:10;;;;;;;1.60;0.77;;;12.70;50.80;;;;;;5051669;28;20183;-65
2024/02/24 10:27:36;;;;;;;0.80;0.60;;;12.20;51.60;;;;;;5051692;28;20278;-66
2024/02/24 10:30:05;;;;;;;0.73;0.60;;;11.60;52.30;;;;;;5051710;28;20171;-66
2024/02/24 10:32:35;;;;;;;1.27;0.80;;;11.20;54.30;;;;;;5051402;28;20220;-67
2024/02/24 10:35:04;;;;;;;0.80;0.60;;;10.80;55.60;;;;;;5051539;28;20453;-67
2024/02/24 10:37:32;;;;;;;1.37;0.90;;;10.70;56.70;;;;;;5051308;28;20490;-66
2024/02/24 10:40:00;;;;;;;1.10;0.90;;;11.10;60.10;;;;;;5051525;28;20405;-66
2024/02/24 10:42:28;;;;;;;0.97;0.63;;;11.50;58.50;;;;;;5051256;28;20445;-66
2024/02/24 10:44:54;;;;;;;4.80;0.80;;;12.70;59.80;;;;;;5051593;28;20496;-66
2024/02/24 10:47:21;;;;;;;2.00;0.90;;;13.40;56.40;;;;;;5051379;28;20804;-66
2024/02/24 10:49:46;;;;;;;1.43;1.00;;;14.60;56.50;;;;;;5051512;28;20418;-66
2024/02/24 10:52:13;;;;;;;1.00;0.70;;;15.00;53.30;;;;;;5051049;28;20479;-66
2024/02/24 10:54:42;;;;;;;0.80;0.70;;;15.50;54.10;;;;;;5051455;28;20178;-66
2024/02/24 10:57:08;;;;;;;0.97;0.80;;;16.30;52.40;;;;;;5051000;28;20425;-66
2024/02/24 10:59:34;;;;;;;1.20;0.80;;;16.80;50.40;;;;;;5051290;28;20448;-67
2024/02/24 11:02:02;;;;;;;0.90;0.77;;;19.40;49.10;;;;;;5051114;28;20425;-67
2024/02/24 11:04:28;;;;;;;1.00;0.80;;;22.40;47.00;;;;;;5051340;28;20159;-67
2024/02/24 11:06:58;;;;;;;1.33;0.93;;;23.10;41.40;;;;;;5049867;28;20461;-67
2024/02/24 11:09:33;;;;;;;1.00;0.87;;;22.50;39.00;;;;;;5051507;28;20825;-67
2024/02/24 11:12:09;;;;;;;1.10;1.00;;;21.50;35.60;;;;;;5050221;28;20904;-67
2024/02/24 11:14:42;;;;;;;1.00;0.90;;;19.80;36.60;;;;;;5051122;28;20419;-67
2024/02/24 11:17:09;;;;;;;0.90;0.80;;;19.20;38.70;;;;;;5051021;28;20853;-67
2024/02/24 11:19:46;;;;;;;1.50;1.03;;;19.60;39.40;;;;;;5051120;28;20747;-67
2024/02/24 11:22:30;;;;;;;1.00;0.77;;;21.00;36.70;;;;;;5050626;28;20405;-67
2024/02/24 11:25:00;;;;;;;0.90;0.80;;;20.60;34.60;;;;;;5050884;28;20410;-67
2024/02/24 11:27:30;;;;;;;1.13;0.87;;;19.90;34.80;;;;;;5051475;28;20770;-67
2024/02/24 11:30:16;;;;;;;1.13;0.80;;;17.60;35.30;;;;;;5051003;28;20611;-66
2024/02/24 11:32:41;;;;;;;1.13;0.87;;;16.70;37.60;;;;;;5052350;28;20420;-67
2024/02/24 11:35:07;;;;;;;1.00;0.90;;;16.00;39.20;;;;;;5054494;28;20928;-67
2024/02/24 11:37:33;;;;;;;0.90;0.80;;;15.20;40.60;;;;;;5054231;28;20543;-67
2024/02/24 11:39:59;;;;;;;1.67;1.13;;;14.30;41.10;;;;;;5054573;28;20172;-67
2024/02/24 11:42:26;;;;;;;1.10;1.00;;;13.90;42.40;;;;;;5054216;28;20402;-67
2024/02/24 11:44:52;;;;;;;1.00;0.80;;;13.40;45.00;;;;;;5054468;28;20405;-67
2024/02/24 11:47:17;;;;;;;0.80;0.70;;;13.30;46.20;;;;;;5054345;28;20424;-67
2024/02/24 11:49:47;;;;;;;1.37;0.70;;;12.70;46.60;;;;;;5054345;28;20174;-67
2024/02/24 11:52:15;;;;;;;0.80;0.60;;;12.40;47.60;;;;;;5053575;28;20171;-67
2024/02/24 11:54:42;;;;;;;2.40;0.80;;;11.90;48.30;;;;;;5053808;28;20405;-67
2024/02/24 11:57:08;;;;;;;1.10;0.80;;;11.70;49.70;;;;;;5053820;28;20838;-67
2024/02/24 11:59:34;;;;;;;1.10;0.90;;;11.70;50.30;;;;;;5054100;28;20405;-67
2024/02/24 12:01:59;;;;;;;0.97;0.87;;;11.20;49.80;;;;;;5053810;28;20182;-67
2024/02/24 12:04:26;;;;;;;1.47;0.80;;;10.90;51.60;;;;;;5053989;28;20753;-67
2024/02/24 12:06:52;;;;;;;1.30;1.00;;;11.00;54.10;;;;;;5053920;28;20175;-67
2024/02/24 12:09:19;;;;;;;3.07;1.90;;;11.70;54.40;;;;;;5053879;28;20398;-67
2024/02/24 12:11:44;;;;;;;2.80;1.43;;;12.50;52.30;;;;;;5053692;28;20393;-67
2024/02/24 12:14:10;;;;;;;12.53;5.40;;;12.80;51.90;;;;;;5053776;28;20416;-67
2024/02/24 12:16:37;;;;;;;2.70;1.67;;;12.80;51.00;;;;;;5053726;28;20285;-67
2024/02/24 12:19:04;;;;;;;1.23;0.73;;;12.10;46.60;;;;;;5053845;28;20466;-67
2024/02/24 12:21:30;;;;;;;0.90;0.70;;;11.60;46.40;;;;;;5053513;28;20540;-67
2024/02/24 12:23:58;;;;;;;1.77;1.10;;;11.30;46.90;;;;;;5053616;28;20501;-66
2024/02/24 12:26:25;;;;;;;1.90;1.00;;;11.30;48.00;;;;;;5053541;28;20210;-67
2024/02/24 12:28:51;;;;;;;2.10;0.80;;;11.00;48.00;;;;;;5053652;28;20404;-67
2024/02/24 12:31:17;;;;;;;0.90;0.70;;;10.90;47.70;;;;;;5053347;28;20401;-67
2024/02/24 12:33:44;;;;;;;0.90;0.80;;;10.90;48.70;;;;;;5053483;28;20459;-67
2024/02/24 12:36:12;;;;;;;1.90;0.97;;;10.90;49.00;;;;;;5053294;28;20187;-67
2024/02/24 12:38:38;;;;;;;1.50;0.77;;;10.90;49.30;;;;;;5053269;28;20401;-67
2024/02/24 12:41:11;;;;;;;3.87;1.07;;;10.70;48.70;;;;;;5052664;28;20433;-67
2024/02/24 12:43:38;;;;;;;1.20;0.90;;;10.60;49.40;;;;;;5053246;28;20484;-67
2024/02/24 12:46:04;;;;;;;1.67;0.87;;;10.70;50.60;;;;;;5053208;28;20495;-67
2024/02/24 12:48:30;;;;;;;2.17;1.10;;;10.90;50.90;;;;;;5053155;28;20916;-67